Airfield :
LOGIN :

Register | Disclaimer

   EN    FR    IT 

 










Legend :    VFR   Marginal VFR   IFR   Intensive IFR   Very Intensive IFR
Visi :
Ceiling :
>= 8 km
>= 3000ft
5 to 8 km
1000 to 3000 ft
1500m to 5 km
500 to 1000 ft
800 to 1500m
200 to 500 ft
< 800m
< 200 ft
Symbols :   Thunderstorms  Fog  Heavy snow  Heavy precipitations  Wind > 20 kt
SIGMETs :     Misc.  Thunderstorms  Icing  Turbulence  Mountain Waves  Volcanic Ashes







- Airport Elevation : 33 ft
- IATA code : MHZ


EGUN - RAF Mildenhall

CURRENT METAR :
  • 161234Z AUTO 22018G27KT 9999 FEW029 SCT037 20/13 A2996 RMK AO2 SLPNO $

EXPIRED METARs :
  • 161156Z AUTO 20019G24KT 9999 SCT025 BKN035 BKN044 BKN065 OVC080 18/15 A2996 RMK AO2 RAB39E50 SLP149 P0000 60000 7//// T01830152 10186 20123 57007 $
  • 161150Z AUTO 20014G21KT 9999 SCT025 BKN035 BKN042 OVC080 18/15 A2996 RMK AO2 RAB39E50 SLP149 $
  • 161139Z AUTO M 9999 -RA BKN026 BKN035 18/14 A2997 RMK AO2 RAB39 SLP152 $
  • 161056Z AUTO 19018G25KT 9999 BKN023 BKN028 OVC035 17/15 A2997 RMK AO2 SLP152 T01740145 $
  • 161016Z AUTO 19013KT 9999 BKN023 BKN028 BKN038 BKN045 OVC060 16/14 A2998 RMK AO2 CIG 023V046 SLP155 $
  • 161006Z AUTO 19013KT 9999 SCT024 SCT038 BKN046 OVC060 17/14 A2998 RMK AO2 SLP155 $
  • 161001Z AUTO 19010KT 9999 FEW023 SCT037 SCT046 OVC060 16/14 A2998 RMK AO2 SLP155 $
  • 160946Z AUTO 19012KT 9999 SCT023 OVC060 16/14 A2999 RMK AO2 SLP159 $

TAF TAF EGUN
Valid from the 15 at 12:00 until the 16 at 18:00 UTC


151200Z 1512/1618 19012G20KT 9999 BKN030 QNH2987INS
TEMPO 1515/1520 8000 -RA BKN015
BECMG 1519/1520 20012KT 9999 SCT020 QNH2990INS
BECMG 1607/1608 21015G25KT 8000 -RA BKN015 BKN050 QNH3000INS TX18/1513Z TN09/1604Z LAST NO AMDS AFT 1515 NEXT 1702
No reported NOTAMs for that airfield.



MET'MAP, your aeronautical weather chart ! - Copyright ORBIFLY December 2007 - Disclaimer

ORBIFLY MET'MAP TEAM :

Programming & Development : Alexandra Zaïnal
Concept & Development : Baudouin d'Aumeries
Co-Development & Prog : Marc-Olivier Méhu
Technical & hardware support : Manuel Goepfert

Contact : metmap@orbifly.com




SOURCES & CREDITS :

   NOAA